Terminal Aerodrome Forecast
Issued by NWS

Current Version | Previous Version | Text Only | Print | Product List | Glossary On
Versions: 1 2 3 4 5 6 7 8 9 10 11 12 13 14
000
FTUS46 KSEW 231939 AAA
TAFBLI
TAF AMD
KBLI 231939Z 2320/2418 33006KT P6SM SCT015 BKN025
     FM232200 33010KT P6SM SCT030
     FM240000 33010KT P6SM SKC
     FM241300 03006KT P6SM SKC
     FM241700 33007KT P6SM SKC=

USA.gov is the U.S. government's official web portal to all federal, state and local government web resources and services.